SHT9J EGPH-EGLL
Flight info
| Callsign | SHT9J |
|---|---|
| Flight time | 0h 58m |
| Altitude | 31000 |
| Route | GOSAM P600 FENIK L612 NAVSO DCT AKOMU DCT VAMEB DCT NUGRA |
| Aircraft | A320/M-SDE3FGHIRWY/LB1 |
Departure
| Time | 2026-04-21 14:48 |
|---|---|
| Airport | Edinburgh Airport (EGPH) |
Arrival
| Time | 2026-04-21 15:46 |
|---|---|
| Airport | London Heathrow Airport (EGLL) |
| Time | Latitude | Longitude | Altitude | Speed | Heading |
|---|---|---|---|---|---|
| 2026-04-21 14:08 | 55.94921 | -3.36430 | 143 ft | 0 kts | 148° |
| 2026-04-21 14:36 | 55.94930 | -3.36440 | 113 ft | 3 kts | 148° |
| 2026-04-21 14:37 | 55.94947 | -3.36458 | 113 ft | 3 kts | 148° |
| 2026-04-21 14:37 | 55.94962 | -3.36478 | 113 ft | 3 kts | 127° |
| 2026-04-21 14:37 | 55.94970 | -3.36507 | 112 ft | 3 kts | 87° |
| 2026-04-21 14:37 | 55.94966 | -3.36537 | 112 ft | 2 kts | 60° |
| 2026-04-21 14:38 | 55.94965 | -3.36541 | 112 ft | 0 kts | 59° |
| 2026-04-21 14:41 | 55.94969 | -3.36529 | 112 ft | 3 kts | 59° |
| 2026-04-21 14:41 | 55.94988 | -3.36475 | 114 ft | 7 kts | 59° |
| 2026-04-21 14:41 | 55.95023 | -3.36393 | 112 ft | 8 kts | 33° |
| 2026-04-21 14:41 | 55.95045 | -3.36386 | 113 ft | 0 kts | 1° |
| 2026-04-21 14:43 | 55.95050 | -3.36388 | 114 ft | 3 kts | 352° |
| 2026-04-21 14:44 | 55.95071 | -3.36445 | 114 ft | 7 kts | 274° |
| 2026-04-21 14:44 | 55.95045 | -3.36546 | 115 ft | 11 kts | 239° |
| 2026-04-21 14:44 | 55.94998 | -3.36682 | 115 ft | 14 kts | 238° |
| 2026-04-21 14:44 | 55.94941 | -3.36850 | 114 ft | 17 kts | 239° |
| 2026-04-21 14:45 | 55.94875 | -3.37052 | 113 ft | 20 kts | 239° |
| 2026-04-21 14:45 | 55.94797 | -3.37278 | 115 ft | 22 kts | 238° |
| 2026-04-21 14:45 | 55.94736 | -3.37459 | 115 ft | 17 kts | 239° |
| 2026-04-21 14:45 | 55.94669 | -3.37653 | 113 ft | 20 kts | 239° |
| 2026-04-21 14:46 | 55.94594 | -3.37879 | 114 ft | 21 kts | 238° |
| 2026-04-21 14:46 | 55.94518 | -3.38098 | 112 ft | 21 kts | 238° |
| 2026-04-21 14:46 | 55.94438 | -3.38336 | 114 ft | 23 kts | 238° |
| 2026-04-21 14:46 | 55.94361 | -3.38559 | 114 ft | 21 kts | 239° |
| 2026-04-21 14:47 | 55.94297 | -3.38754 | 113 ft | 11 kts | 239° |
| 2026-04-21 14:47 | 55.94303 | -3.38881 | 113 ft | 12 kts | 320° |
| 2026-04-21 14:47 | 55.94387 | -3.38965 | 114 ft | 15 kts | 346° |
| 2026-04-21 14:47 | 55.94456 | -3.38851 | 114 ft | 16 kts | 59° |
| 2026-04-21 14:48 | 55.94587 | -3.38461 | 111 ft | 69 kts | 59° |
| 2026-04-21 14:48 | 55.94945 | -3.37406 | 111 ft | 127 kts | 59° |
| 2026-04-21 14:48 | 55.95422 | -3.35989 | 660 ft | 133 kts | 61° |
| 2026-04-21 14:48 | 55.95739 | -3.35049 | 1134 ft | 134 kts | 60° |
| 2026-04-21 14:49 | 55.96591 | -3.33316 | 1838 ft | 152 kts | 44° |
| 2026-04-21 14:49 | 55.97140 | -3.32432 | 2082 ft | 167 kts | 44° |
| 2026-04-21 14:49 | 55.98074 | -3.30928 | 2504 ft | 193 kts | 45° |
| 2026-04-21 14:49 | 55.99102 | -3.29278 | 3283 ft | 201 kts | 44° |
| 2026-04-21 14:50 | 56.00330 | -3.28002 | 4248 ft | 210 kts | 21° |
| 2026-04-21 14:50 | 56.01823 | -3.27806 | 5157 ft | 223 kts | 355° |
| 2026-04-21 14:50 | 56.03285 | -3.28878 | 5802 ft | 240 kts | 326° |
| 2026-04-21 14:50 | 56.04306 | -3.31282 | 6564 ft | 248 kts | 292° |
| 2026-04-21 14:51 | 56.04544 | -3.34339 | 7469 ft | 251 kts | 260° |
| 2026-04-21 14:51 | 56.03896 | -3.37186 | 8336 ft | 248 kts | 229° |
| 2026-04-21 14:51 | 56.02834 | -3.39596 | 9072 ft | 260 kts | 232° |
| 2026-04-21 14:51 | 56.01949 | -3.42622 | 9520 ft | 288 kts | 248° |
| 2026-04-21 14:52 | 56.01396 | -3.46185 | 10233 ft | 301 kts | 252° |
| 2026-04-21 14:52 | 56.00866 | -3.49878 | 10856 ft | 316 kts | 253° |
| 2026-04-21 14:52 | 56.00310 | -3.53795 | 11174 ft | 339 kts | 253° |
| 2026-04-21 14:52 | 55.99722 | -3.57964 | 11785 ft | 349 kts | 253° |
| 2026-04-21 14:53 | 55.99124 | -3.62216 | 12589 ft | 354 kts | 253° |
| 2026-04-21 14:53 | 55.98527 | -3.66457 | 13338 ft | 359 kts | 253° |
| 2026-04-21 14:53 | 55.97909 | -3.70821 | 14100 ft | 364 kts | 253° |
| 2026-04-21 14:53 | 55.97220 | -3.75201 | 14798 ft | 366 kts | 246° |
| 2026-04-21 14:54 | 55.95956 | -3.79085 | 15438 ft | 365 kts | 227° |
| 2026-04-21 14:54 | 55.94052 | -3.82062 | 16090 ft | 362 kts | 207° |
| 2026-04-21 14:54 | 55.91764 | -3.83753 | 16702 ft | 358 kts | 188° |
| 2026-04-21 14:54 | 55.89290 | -3.84114 | 17353 ft | 356 kts | 175° |
| 2026-04-21 14:55 | 55.86790 | -3.84011 | 18019 ft | 360 kts | 174° |
| 2026-04-21 14:55 | 55.84266 | -3.83889 | 18677 ft | 364 kts | 174° |
| 2026-04-21 14:55 | 55.81738 | -3.83765 | 19253 ft | 368 kts | 174° |
| 2026-04-21 14:55 | 55.79161 | -3.83647 | 19866 ft | 372 kts | 174° |
| 2026-04-21 14:56 | 55.76554 | -3.83535 | 20488 ft | 375 kts | 175° |
| 2026-04-21 14:56 | 55.73948 | -3.83431 | 21102 ft | 378 kts | 175° |
| 2026-04-21 14:56 | 55.71289 | -3.83330 | 21706 ft | 381 kts | 175° |
| 2026-04-21 14:56 | 55.68664 | -3.83232 | 22296 ft | 383 kts | 175° |
| 2026-04-21 14:57 | 55.65991 | -3.83128 | 22883 ft | 385 kts | 175° |
| 2026-04-21 14:57 | 55.63297 | -3.83019 | 23456 ft | 388 kts | 175° |
| 2026-04-21 14:57 | 55.60584 | -3.82910 | 24009 ft | 391 kts | 176° |
| 2026-04-21 14:57 | 55.57844 | -3.82798 | 24482 ft | 394 kts | 175° |
| 2026-04-21 14:58 | 55.55123 | -3.82685 | 24944 ft | 396 kts | 175° |
| 2026-04-21 14:58 | 55.52353 | -3.82568 | 25415 ft | 398 kts | 175° |
| 2026-04-21 14:58 | 55.49569 | -3.82448 | 25865 ft | 401 kts | 175° |
| 2026-04-21 14:58 | 55.46762 | -3.82331 | 26321 ft | 404 kts | 176° |
| 2026-04-21 14:59 | 55.43965 | -3.82221 | 26791 ft | 406 kts | 176° |
| 2026-04-21 14:59 | 55.41126 | -3.82113 | 27262 ft | 408 kts | 177° |
| 2026-04-21 14:59 | 55.38271 | -3.82000 | 27725 ft | 410 kts | 177° |
| 2026-04-21 14:59 | 55.35407 | -3.81884 | 28153 ft | 413 kts | 178° |
| 2026-04-21 15:00 | 55.32524 | -3.81765 | 28554 ft | 417 kts | 178° |
| 2026-04-21 15:00 | 55.29615 | -3.81642 | 28985 ft | 419 kts | 178° |
| 2026-04-21 15:00 | 55.26691 | -3.81523 | 29447 ft | 421 kts | 178° |
| 2026-04-21 15:00 | 55.23772 | -3.81106 | 29890 ft | 423 kts | 170° |
| 2026-04-21 15:01 | 55.20899 | -3.79873 | 30299 ft | 426 kts | 161° |
| 2026-04-21 15:01 | 55.18150 | -3.77840 | 30538 ft | 434 kts | 155° |
| 2026-04-21 15:01 | 55.15419 | -3.75474 | 30735 ft | 441 kts | 155° |
| 2026-04-21 15:01 | 55.12656 | -3.73087 | 31030 ft | 445 kts | 155° |
| 2026-04-21 15:02 | 55.09867 | -3.70681 | 31327 ft | 449 kts | 156° |
| 2026-04-21 15:02 | 55.07091 | -3.68296 | 31459 ft | 451 kts | 155° |
| 2026-04-21 15:02 | 55.04326 | -3.65930 | 31482 ft | 436 kts | 155° |
| 2026-04-21 15:03 | 54.98925 | -3.61336 | 31471 ft | 430 kts | 156° |
| 2026-04-21 15:03 | 54.93541 | -3.56757 | 31470 ft | 433 kts | 156° |
| 2026-04-21 15:04 | 54.88092 | -3.52130 | 31469 ft | 437 kts | 156° |
| 2026-04-21 15:04 | 54.82615 | -3.47490 | 31469 ft | 438 kts | 156° |
| 2026-04-21 15:05 | 54.77136 | -3.42868 | 31459 ft | 438 kts | 156° |
| 2026-04-21 15:05 | 54.68913 | -3.35963 | 31444 ft | 438 kts | 157° |
| 2026-04-21 15:06 | 54.63451 | -3.31385 | 31432 ft | 440 kts | 157° |
| 2026-04-21 15:06 | 54.57934 | -3.26773 | 31420 ft | 441 kts | 157° |
| 2026-04-21 15:07 | 54.52399 | -3.22170 | 31425 ft | 442 kts | 157° |
| 2026-04-21 15:07 | 54.46857 | -3.17581 | 31412 ft | 442 kts | 157° |
| 2026-04-21 15:08 | 54.41301 | -3.12997 | 31409 ft | 443 kts | 157° |
| 2026-04-21 15:08 | 54.35738 | -3.08406 | 31400 ft | 444 kts | 157° |
| 2026-04-21 15:09 | 54.30159 | -3.03827 | 31397 ft | 445 kts | 157° |
| 2026-04-21 15:09 | 54.24570 | -2.99247 | 31404 ft | 445 kts | 157° |
| 2026-04-21 15:10 | 54.18978 | -2.94680 | 31391 ft | 446 kts | 158° |
| 2026-04-21 15:10 | 54.13363 | -2.90241 | 31381 ft | 448 kts | 160° |
| 2026-04-21 15:11 | 54.07598 | -2.86086 | 31374 ft | 449 kts | 161° |
| 2026-04-21 15:11 | 54.01801 | -2.81997 | 31381 ft | 451 kts | 161° |
| 2026-04-21 15:12 | 53.95927 | -2.78579 | 31362 ft | 449 kts | 167° |
| 2026-04-21 15:12 | 53.89947 | -2.75415 | 31352 ft | 451 kts | 168° |
| 2026-04-21 15:13 | 53.83931 | -2.72247 | 31354 ft | 454 kts | 168° |
| 2026-04-21 15:13 | 53.77883 | -2.69060 | 31360 ft | 455 kts | 168° |
| 2026-04-21 15:14 | 53.71823 | -2.65878 | 31363 ft | 456 kts | 168° |
| 2026-04-21 15:14 | 53.65752 | -2.62707 | 31347 ft | 458 kts | 169° |
| 2026-04-21 15:15 | 53.59646 | -2.59517 | 31351 ft | 460 kts | 169° |
| 2026-04-21 15:15 | 53.53523 | -2.56326 | 31380 ft | 461 kts | 167° |
| 2026-04-21 15:16 | 53.47391 | -2.53149 | 31389 ft | 461 kts | 168° |
| 2026-04-21 15:16 | 53.41263 | -2.49991 | 31393 ft | 460 kts | 167° |
| 2026-04-21 15:17 | 53.35139 | -2.46832 | 31394 ft | 460 kts | 167° |
| 2026-04-21 15:17 | 53.29022 | -2.43674 | 31393 ft | 460 kts | 167° |
| 2026-04-21 15:18 | 53.22900 | -2.40532 | 31392 ft | 460 kts | 168° |
| 2026-04-21 15:18 | 53.16768 | -2.37406 | 31364 ft | 462 kts | 168° |
| 2026-04-21 15:19 | 53.10648 | -2.34292 | 31361 ft | 464 kts | 168° |
| 2026-04-21 15:19 | 53.04471 | -2.31066 | 31365 ft | 468 kts | 164° |
| 2026-04-21 15:20 | 52.98688 | -2.25904 | 31359 ft | 475 kts | 151° |
| 2026-04-21 15:20 | 52.93100 | -2.20030 | 31347 ft | 476 kts | 151° |
| 2026-04-21 15:21 | 52.87479 | -2.14148 | 31358 ft | 477 kts | 151° |
| 2026-04-21 15:21 | 52.81865 | -2.08293 | 31360 ft | 477 kts | 151° |
| 2026-04-21 15:22 | 52.76242 | -2.02446 | 31366 ft | 478 kts | 151° |
| 2026-04-21 15:22 | 52.73458 | -1.99557 | 31150 ft | 479 kts | 151° |
| 2026-04-21 15:22 | 52.70631 | -1.96633 | 30901 ft | 480 kts | 151° |
| 2026-04-21 15:23 | 52.67796 | -1.93702 | 30547 ft | 479 kts | 151° |
| 2026-04-21 15:23 | 52.64980 | -1.90791 | 29830 ft | 479 kts | 151° |
| 2026-04-21 15:23 | 52.62156 | -1.87874 | 29193 ft | 476 kts | 151° |
| 2026-04-21 15:23 | 52.59358 | -1.84993 | 28546 ft | 473 kts | 150° |
| 2026-04-21 15:24 | 52.56574 | -1.82136 | 27910 ft | 470 kts | 150° |
| 2026-04-21 15:24 | 52.53805 | -1.79301 | 27274 ft | 468 kts | 150° |
| 2026-04-21 15:24 | 52.51050 | -1.76483 | 26636 ft | 464 kts | 150° |
| 2026-04-21 15:24 | 52.48319 | -1.73690 | 26026 ft | 461 kts | 150° |
| 2026-04-21 15:25 | 52.45608 | -1.70920 | 25448 ft | 458 kts | 149° |
| 2026-04-21 15:25 | 52.42910 | -1.68167 | 24868 ft | 455 kts | 149° |
| 2026-04-21 15:25 | 52.40235 | -1.65440 | 24303 ft | 451 kts | 149° |
| 2026-04-21 15:25 | 52.37575 | -1.62733 | 23736 ft | 447 kts | 149° |
| 2026-04-21 15:26 | 52.34948 | -1.60065 | 23169 ft | 441 kts | 149° |
| 2026-04-21 15:26 | 52.32356 | -1.57436 | 22648 ft | 435 kts | 148° |
| 2026-04-21 15:26 | 52.29832 | -1.54883 | 22171 ft | 429 kts | 148° |
| 2026-04-21 15:26 | 52.27277 | -1.52304 | 21623 ft | 424 kts | 148° |
| 2026-04-21 15:27 | 52.24810 | -1.49816 | 21103 ft | 420 kts | 149° |
| 2026-04-21 15:27 | 52.22307 | -1.47277 | 20547 ft | 417 kts | 146° |
| 2026-04-21 15:27 | 52.20070 | -1.44411 | 20059 ft | 411 kts | 138° |
| 2026-04-21 15:27 | 52.17932 | -1.41395 | 19668 ft | 402 kts | 138° |
| 2026-04-21 15:28 | 52.15831 | -1.38453 | 19318 ft | 394 kts | 138° |
| 2026-04-21 15:28 | 52.13773 | -1.35589 | 18938 ft | 385 kts | 139° |
| 2026-04-21 15:28 | 52.11752 | -1.32787 | 18509 ft | 377 kts | 139° |
| 2026-04-21 15:28 | 52.09772 | -1.30045 | 18066 ft | 369 kts | 138° |
| 2026-04-21 15:29 | 52.07847 | -1.27375 | 17691 ft | 359 kts | 137° |
| 2026-04-21 15:29 | 52.05977 | -1.24774 | 17324 ft | 350 kts | 138° |
| 2026-04-21 15:29 | 52.04146 | -1.22232 | 16959 ft | 343 kts | 138° |
| 2026-04-21 15:29 | 52.02323 | -1.19711 | 16542 ft | 344 kts | 139° |
| 2026-04-21 15:30 | 52.00500 | -1.17198 | 16200 ft | 343 kts | 139° |
| 2026-04-21 15:30 | 51.98705 | -1.14720 | 15849 ft | 342 kts | 138° |
| 2026-04-21 15:30 | 51.96901 | -1.12231 | 15503 ft | 338 kts | 137° |
| 2026-04-21 15:30 | 51.95098 | -1.09741 | 15085 ft | 336 kts | 137° |
| 2026-04-21 15:31 | 51.93310 | -1.07269 | 14320 ft | 334 kts | 137° |
| 2026-04-21 15:31 | 51.91607 | -1.04928 | 14157 ft | 309 kts | 138° |
| 2026-04-21 15:31 | 51.90546 | -1.03475 | 14030 ft | 296 kts | 137° |
| 2026-04-21 15:31 | 51.88543 | -1.00738 | 13561 ft | 279 kts | 136° |
| 2026-04-21 15:32 | 51.87062 | -0.98703 | 12921 ft | 277 kts | 136° |
| 2026-04-21 15:32 | 51.85663 | -0.96650 | 12716 ft | 265 kts | 128° |
| 2026-04-21 15:32 | 51.84947 | -0.95082 | 12568 ft | 260 kts | 118° |
| 2026-04-21 15:32 | 51.84133 | -0.92474 | 12185 ft | 260 kts | 114° |
| 2026-04-21 15:33 | 51.83338 | -0.89851 | 11843 ft | 260 kts | 114° |
| 2026-04-21 15:33 | 51.82536 | -0.87223 | 11497 ft | 261 kts | 115° |
| 2026-04-21 15:33 | 51.81470 | -0.83738 | 11047 ft | 261 kts | 114° |
| 2026-04-21 15:33 | 51.80928 | -0.81961 | 10817 ft | 261 kts | 114° |
| 2026-04-21 15:34 | 51.80127 | -0.79332 | 10472 ft | 261 kts | 114° |
| 2026-04-21 15:34 | 51.79322 | -0.76704 | 10122 ft | 261 kts | 114° |
| 2026-04-21 15:34 | 51.78515 | -0.74077 | 9760 ft | 260 kts | 114° |
| 2026-04-21 15:34 | 51.77710 | -0.71461 | 9418 ft | 260 kts | 114° |
| 2026-04-21 15:35 | 51.76907 | -0.68853 | 9074 ft | 259 kts | 114° |
| 2026-04-21 15:35 | 51.76113 | -0.66284 | 8735 ft | 258 kts | 114° |
| 2026-04-21 15:35 | 51.75322 | -0.63735 | 8405 ft | 247 kts | 114° |
| 2026-04-21 15:35 | 51.74561 | -0.61287 | 8074 ft | 242 kts | 114° |
| 2026-04-21 15:36 | 51.73799 | -0.58827 | 7542 ft | 251 kts | 114° |
| 2026-04-21 15:36 | 51.72778 | -0.56498 | 7213 ft | 258 kts | 135° |
| 2026-04-21 15:36 | 51.71182 | -0.55156 | 6823 ft | 269 kts | 163° |
| 2026-04-21 15:36 | 51.69301 | -0.55214 | 6427 ft | 275 kts | 192° |
| 2026-04-21 15:37 | 51.67636 | -0.56720 | 6240 ft | 276 kts | 221° |
| 2026-04-21 15:37 | 51.66394 | -0.59062 | 6055 ft | 272 kts | 230° |
| 2026-04-21 15:37 | 51.65264 | -0.61477 | 5861 ft | 266 kts | 231° |
| 2026-04-21 15:37 | 51.64183 | -0.63824 | 5687 ft | 260 kts | 231° |
| 2026-04-21 15:38 | 51.63118 | -0.66151 | 5552 ft | 255 kts | 231° |
| 2026-04-21 15:38 | 51.62062 | -0.68456 | 5425 ft | 254 kts | 231° |
| 2026-04-21 15:38 | 51.61009 | -0.70757 | 5296 ft | 254 kts | 231° |
| 2026-04-21 15:38 | 51.59975 | -0.73023 | 5169 ft | 254 kts | 231° |
| 2026-04-21 15:39 | 51.58931 | -0.75321 | 5038 ft | 254 kts | 231° |
| 2026-04-21 15:39 | 51.57894 | -0.77614 | 4918 ft | 252 kts | 231° |
| 2026-04-21 15:39 | 51.56869 | -0.79874 | 4812 ft | 246 kts | 231° |
| 2026-04-21 15:39 | 51.55875 | -0.82060 | 4709 ft | 244 kts | 230° |
| 2026-04-21 15:40 | 51.54659 | -0.83858 | 4603 ft | 234 kts | 201° |
| 2026-04-21 15:40 | 51.53116 | -0.84537 | 4464 ft | 227 kts | 179° |
| 2026-04-21 15:40 | 51.51569 | -0.84401 | 4343 ft | 218 kts | 160° |
| 2026-04-21 15:40 | 51.50183 | -0.83569 | 4278 ft | 212 kts | 144° |
| 2026-04-21 15:41 | 51.49023 | -0.82161 | 4166 ft | 206 kts | 128° |
| 2026-04-21 15:41 | 51.48185 | -0.80346 | 3991 ft | 200 kts | 113° |
| 2026-04-21 15:41 | 51.47710 | -0.78308 | 3779 ft | 193 kts | 98° |
| 2026-04-21 15:41 | 51.47601 | -0.76191 | 3542 ft | 189 kts | 87° |
| 2026-04-21 15:42 | 51.47615 | -0.74094 | 3287 ft | 186 kts | 87° |
| 2026-04-21 15:42 | 51.47628 | -0.72046 | 3035 ft | 185 kts | 87° |
| 2026-04-21 15:42 | 51.47641 | -0.69985 | 2789 ft | 184 kts | 87° |
| 2026-04-21 15:42 | 51.47652 | -0.67953 | 2534 ft | 176 kts | 87° |
| 2026-04-21 15:43 | 51.47662 | -0.66070 | 2322 ft | 166 kts | 87° |
| 2026-04-21 15:43 | 51.47672 | -0.64254 | 2084 ft | 157 kts | 88° |
| 2026-04-21 15:43 | 51.47681 | -0.62573 | 1866 ft | 145 kts | 86° |
| 2026-04-21 15:43 | 51.47690 | -0.60999 | 1685 ft | 141 kts | 88° |
| 2026-04-21 15:44 | 51.47697 | -0.59478 | 1489 ft | 130 kts | 88° |
| 2026-04-21 15:44 | 51.47704 | -0.58055 | 1311 ft | 125 kts | 88° |
| 2026-04-21 15:44 | 51.47711 | -0.56680 | 1143 ft | 122 kts | 87° |
| 2026-04-21 15:44 | 51.47718 | -0.55328 | 976 ft | 123 kts | 86° |
| 2026-04-21 15:45 | 51.47721 | -0.53968 | 771 ft | 120 kts | 86° |
| 2026-04-21 15:45 | 51.47721 | -0.52623 | 590 ft | 124 kts | 88° |
| 2026-04-21 15:45 | 51.47733 | -0.51254 | 441 ft | 124 kts | 89° |
| 2026-04-21 15:45 | 51.47744 | -0.49848 | 262 ft | 126 kts | 88° |
| 2026-04-21 15:46 | 51.47748 | -0.48471 | 125 ft | 123 kts | 88° |
| 2026-04-21 15:46 | 51.47756 | -0.47191 | 87 ft | 96 kts | 90° |
| 2026-04-21 15:46 | 51.47758 | -0.46362 | 91 ft | 57 kts | 89° |
| 2026-04-21 15:46 | 51.47761 | -0.45816 | 84 ft | 45 kts | 89° |
| 2026-04-21 15:47 | 51.47745 | -0.45518 | 87 ft | 19 kts | 124° |
| 2026-04-21 15:47 | 51.47639 | -0.45468 | 86 ft | 12 kts | 180° |
| 2026-04-21 15:47 | 51.47597 | -0.45585 | 86 ft | 15 kts | 268° |
| 2026-04-21 15:47 | 51.47596 | -0.45762 | 90 ft | 17 kts | 270° |
| 2026-04-21 15:48 | 51.47596 | -0.45973 | 88 ft | 20 kts | 270° |
| 2026-04-21 15:48 | 51.47595 | -0.46215 | 90 ft | 23 kts | 270° |
| 2026-04-21 15:48 | 51.47594 | -0.46486 | 86 ft | 26 kts | 269° |
| 2026-04-21 15:48 | 51.47592 | -0.46737 | 86 ft | 20 kts | 269° |
| 2026-04-21 15:49 | 51.47584 | -0.46948 | 89 ft | 19 kts | 274° |
| 2026-04-21 15:49 | 51.47583 | -0.47155 | 90 ft | 20 kts | 269° |
| 2026-04-21 15:49 | 51.47582 | -0.47391 | 87 ft | 22 kts | 270° |
| 2026-04-21 15:49 | 51.47582 | -0.47628 | 90 ft | 21 kts | 270° |
| 2026-04-21 15:50 | 51.47581 | -0.47865 | 90 ft | 16 kts | 270° |
| 2026-04-21 15:50 | 51.47579 | -0.48060 | 90 ft | 19 kts | 269° |
| 2026-04-21 15:50 | 51.47579 | -0.48280 | 88 ft | 20 kts | 268° |
| 2026-04-21 15:50 | 51.47561 | -0.48459 | 89 ft | 14 kts | 221° |
| 2026-04-21 15:51 | 51.47490 | -0.48560 | 88 ft | 16 kts | 262° |
| 2026-04-21 15:51 | 51.47487 | -0.48732 | 87 ft | 13 kts | 270° |
| 2026-04-21 15:51 | 51.47476 | -0.48830 | 89 ft | 7 kts | 206° |
| 2026-04-21 15:51 | 51.47420 | -0.48829 | 86 ft | 6 kts | 180° |
| 2026-04-21 15:52 | 51.47405 | -0.48829 | 86 ft | 1 kts | 179° |
| 2026-04-21 15:52 | 51.47404 | -0.48829 | 86 ft | 0 kts | 179° |